Time;durP1;ratioP1;P1;durP2;ratioP2;P2;SDS_P1;SDS_P2;PMS_P1;PMS_P2;Temp;Humidity;BMP_temperature;BMP_pressure;BME280_temperature;BME280_humidity;BME280_pressure;Samples;Min_cycle;Max_cycle;Signal;HPM_P1;HPM_P2
2022/10/23 00:01:51;;;;;;;18.83;16.83;;;;;;;10.91;85.91;93362.38;5071494;28;20195;-69
2022/10/23 00:04:19;;;;;;;19.67;17.20;;;;;;;10.87;86.18;93343.06;5071441;28;20275;-69
2022/10/23 00:06:45;;;;;;;17.93;16.03;;;;;;;10.84;86.33;93343.59;5072982;28;20215;-70
2022/10/23 00:09:13;;;;;;;24.40;18.17;;;;;;;10.89;85.78;93332.34;5072064;28;20221;-70
2022/10/23 00:11:39;;;;;;;19.83;17.77;;;;;;;10.73;86.31;93334.19;5072647;28;20247;-70
2022/10/23 00:14:06;;;;;;;21.83;17.57;;;;;;;10.69;86.53;93330.50;5071950;28;20221;-70
2022/10/23 00:16:33;;;;;;;19.87;17.77;;;;;;;10.50;86.62;93302.59;5094717;28;20940;-70
2022/10/23 00:18:58;;;;;;;21.80;18.20;;;;;;;10.77;86.44;93334.47;5071916;28;20221;-69
2022/10/23 00:21:24;;;;;;;18.57;16.77;;;;;;;10.83;86.27;93333.41;5071758;28;20204;-69
2022/10/23 00:23:50;;;;;;;17.87;16.17;;;;;;;10.75;86.26;93329.50;5071650;28;20242;-70
2022/10/23 00:26:16;;;;;;;19.47;16.97;;;;;;;10.85;86.08;93329.47;5072181;28;20190;-69
2022/10/23 00:28:43;;;;;;;20.07;17.00;;;;;;;10.71;87.73;93319.81;5070872;28;20248;-70
2022/10/23 00:31:09;;;;;;;21.17;15.17;;;;;;;10.67;86.63;93298.69;5070960;28;20197;-71
2022/10/23 00:33:35;;;;;;;18.33;15.23;;;;;;;10.85;85.55;93303.34;5071252;28;20248;-70
2022/10/23 00:36:06;;;;;;;17.10;15.23;;;;;;;10.96;84.52;93312.75;5070966;28;20193;-70
2022/10/23 00:38:32;;;;;;;16.37;14.27;;;;;;;11.01;83.99;93317.97;5071254;28;20233;-70
2022/10/23 00:40:58;;;;;;;16.03;13.87;;;;;;;11.06;83.50;93328.44;5071994;28;20269;-70
2022/10/23 00:43:26;;;;;;;16.20;14.47;;;;;;;11.09;83.17;93327.09;5070989;28;20221;-70
2022/10/23 00:45:51;;;;;;;15.60;13.97;;;;;;;11.12;83.07;93331.81;5070119;28;20185;-70
2022/10/23 00:48:17;;;;;;;17.43;14.37;;;;;;;11.12;82.75;93329.19;5071154;28;20310;-70
2022/10/23 00:50:46;;;;;;;15.87;13.17;;;;;;;11.20;82.34;93346.94;5070323;28;20193;-70
2022/10/23 00:53:12;;;;;;;14.17;12.90;;;;;;;11.17;82.40;93345.63;5070244;28;20286;-69
2022/10/23 00:55:45;;;;;;;16.90;12.53;;;;;;;11.17;81.46;93337.78;5070483;28;20186;-71
2022/10/23 00:58:11;;;;;;;13.43;12.13;;;;;;;11.26;80.72;93307.47;5071292;28;20233;-69
2022/10/23 01:00:52;;;;;;;14.20;12.90;;;;;;;11.29;80.62;93301.72;5070759;28;20170;-70
2022/10/23 01:03:20;;;;;;;15.37;12.97;;;;;;;11.44;79.72;93307.97;5067896;28;20230;-69
2022/10/23 01:05:55;;;;;;;18.13;13.30;;;;;;;11.47;79.96;93294.34;5070760;28;20261;-71
2022/10/23 01:08:28;;;;;;;16.17;14.40;;;;;;;11.31;82.23;93304.84;5070326;28;20231;-70
2022/10/23 01:11:07;;;;;;;14.00;12.60;;;;;;;11.38;80.78;93305.34;5069893;28;20255;-70
2022/10/23 01:13:59;;;;;;;19.47;13.53;;;;;;;11.15;82.22;93300.72;5069315;28;20222;-69
2022/10/23 01:16:49;;;;;;;15.00;13.50;;;;;;;11.15;82.86;93316.38;5069943;28;20312;-70
2022/10/23 01:19:41;;;;;;;14.87;13.53;;;;;;;11.24;81.50;93325.25;5070456;28;20705;-70
2022/10/23 01:22:16;;;;;;;13.20;12.27;;;;;;;11.44;78.61;93319.19;5062069;28;20205;-70
2022/10/23 01:24:58;;;;;;;16.40;14.80;;;;;;;11.67;78.05;93349.22;5069274;28;20228;-70
2022/10/23 01:27:31;;;;;;;18.40;16.50;;;;;;;12.05;76.33;93359.81;5070696;28;20217;-70
2022/10/23 01:30:07;;;;;;;19.23;17.13;;;;;;;11.67;78.10;93391.09;5069956;28;20221;-69
2022/10/23 01:33:02;;;;;;;20.37;18.37;;;;;;;10.76;83.90;93383.28;5086275;28;20260;-70
2022/10/23 01:35:38;;;;;;;25.00;19.73;;;;;;;10.68;84.13;93401.28;5079182;28;20205;-70
2022/10/23 01:38:13;;;;;;;23.27;19.03;;;;;;;10.37;85.54;93366.50;5064082;28;20232;-70
2022/10/23 01:41:01;;;;;;;28.73;19.60;;;;;;;10.54;85.77;93397.59;5068635;28;20215;-70
2022/10/23 01:43:35;;;;;;;21.37;18.60;;;;;;;10.56;85.75;93388.47;5068958;28;20225;-70
2022/10/23 01:46:06;;;;;;;23.13;18.33;;;;;;;10.48;86.49;93378.53;5070725;28;20178;-70
2022/10/23 01:48:33;;;;;;;26.90;18.90;;;;;;;10.59;85.83;93384.56;5060734;28;20232;-69
2022/10/23 01:51:04;;;;;;;44.83;27.50;;;;;;;10.66;85.67;93391.09;5049608;28;20230;-69
2022/10/23 01:53:34;;;;;;;22.13;19.77;;;;;;;11.01;83.74;93401.59;5047858;28;20237;-70
2022/10/23 01:56:05;;;;;;;24.30;19.43;;;;;;;10.78;84.43;93389.03;5049394;28;20192;-70
2022/10/23 01:58:33;;;;;;;26.53;21.40;;;;;;;10.67;86.19;93371.78;5056226;28;20232;-70
2022/10/23 02:01:03;;;;;;;27.00;18.97;;;;;;;10.64;86.17;93358.47;5070015;28;20185;-70
2022/10/23 02:03:32;;;;;;;25.27;21.37;;;;;;;10.73;85.62;93344.63;5069780;28;20235;-70
2022/10/23 02:05:57;;;;;;;20.97;18.60;;;;;;;10.70;85.20;93326.09;5068152;28;20181;-71
2022/10/23 02:08:24;;;;;;;21.07;17.30;;;;;;;10.71;85.18;93338.88;5065851;28;20303;-70
2022/10/23 02:10:59;;;;;;;24.53;19.93;;;;;;;10.66;86.09;93344.09;5069297;28;20226;-70
2022/10/23 02:13:32;;;;;;;27.00;20.23;;;;;;;10.66;86.45;93349.31;5068996;28;20223;-70
2022/10/23 02:16:29;;;;;;;26.23;20.37;;;;;;;10.64;86.40;93366.28;5069856;28;20205;-70
2022/10/23 02:19:13;;;;;;;20.23;17.87;;;;;;;10.73;84.33;93394.25;5069321;28;20289;-69
2022/10/23 02:22:02;;;;;;;24.03;18.93;;;;;;;10.30;87.44;93404.34;5070192;28;20193;-70
2022/10/23 02:24:34;;;;;;;21.87;17.47;;;;;;;10.35;87.03;93412.97;5067326;28;20297;-70
2022/10/23 02:27:09;;;;;;;22.77;18.10;;;;;;;10.28;87.65;93409.81;5068700;28;20185;-70
2022/10/23 02:30:06;;;;;;;22.93;18.40;;;;;;;10.50;85.85;93423.47;5068308;28;20217;-70
2022/10/23 02:32:33;;;;;;;23.10;17.00;;;;;;;10.60;84.97;93402.56;5063003;28;20221;-70
2022/10/23 02:34:59;;;;;;;19.60;17.07;;;;;;;10.71;84.11;93393.72;5069649;28;20220;-69
2022/10/23 02:37:24;;;;;;;18.63;16.73;;;;;;;10.99;83.24;93410.72;5069401;28;20218;-70
2022/10/23 02:39:51;;;;;;;18.30;16.13;;;;;;;11.10;82.11;93402.63;5069365;28;20228;-70
2022/10/23 02:42:29;;;;;;;17.43;15.33;;;;;;;11.22;81.34;93400.53;5068542;28;20197;-70
2022/10/23 02:45:04;;;;;;;16.97;15.20;;;;;;;11.24;81.20;93398.44;5068665;28;20242;-70
2022/10/23 02:47:48;;;;;;;16.50;15.00;;;;;;;11.27;81.04;93400.53;5068590;28;20189;-67
2022/10/23 02:50:31;;;;;;;21.27;15.10;;;;;;;11.34;80.86;93398.44;5047958;28;20234;-69
2022/10/23 02:53:09;;;;;;;20.57;14.83;;;;;;;11.29;81.38;93406.28;5048857;28;20283;-67
2022/10/23 02:56:21;;;;;;;16.07;14.47;;;;;;;11.28;81.93;93417.00;5048216;28;20198;-67
2022/10/23 02:58:57;;;;;;;19.83;14.23;;;;;;;11.15;80.65;93412.28;5019925;28;20221;-68
2022/10/23 03:01:27;;;;;;;17.60;14.63;;;;;;;11.31;78.87;93412.00;5041082;28;20203;-67
2022/10/23 03:03:57;;;;;;;18.93;14.00;;;;;;;11.23;79.51;93414.38;5055256;28;20240;-68
2022/10/23 03:06:23;;;;;;;17.97;15.63;;;;;;;11.05;82.21;93405.22;5069426;28;20193;-67
2022/10/23 03:09:02;;;;;;;18.27;13.77;;;;;;;11.06;80.29;93409.44;5068282;28;20241;-68
2022/10/23 03:11:28;;;;;;;15.27;13.73;;;;;;;11.00;80.08;93423.50;5068765;28;20213;-68
2022/10/23 03:13:54;;;;;;;16.17;14.60;;;;;;;11.06;78.94;93422.50;5056609;28;20238;-68
2022/10/23 03:16:19;;;;;;;20.37;13.90;;;;;;;11.06;79.98;93427.72;5049001;28;20217;-67
2022/10/23 03:18:45;;;;;;;15.23;13.80;;;;;;;11.15;78.76;93423.53;5047498;28;20329;-69
2022/10/23 03:21:10;;;;;;;15.23;13.83;;;;;;;11.17;78.86;93423.28;5048684;28;20190;-68
2022/10/23 03:23:35;;;;;;;14.57;13.23;;;;;;;11.06;78.69;93427.72;5056895;28;20233;-68
2022/10/23 03:26:01;;;;;;;13.87;12.80;;;;;;;11.17;78.30;93444.94;5068785;28;20219;-67
2022/10/23 03:28:26;;;;;;;14.00;12.80;;;;;;;11.26;77.02;93438.19;5068982;28;20231;-67
2022/10/23 03:30:51;;;;;;;13.80;12.53;;;;;;;11.28;78.26;93451.75;5068941;28;20217;-67
2022/10/23 03:33:17;;;;;;;13.57;12.17;;;;;;;11.23;78.66;93454.38;5068812;28;20237;-68
2022/10/23 03:35:43;;;;;;;13.80;12.40;;;;;;;11.09;79.17;93453.34;5070984;28;20208;-68
2022/10/23 03:38:09;;;;;;;15.87;13.33;;;;;;;11.10;79.06;93454.09;5072419;28;20231;-68
2022/10/23 03:40:34;;;;;;;16.33;13.50;;;;;;;11.16;77.72;93460.88;5073670;28;20268;-67
2022/10/23 03:42:59;;;;;;;16.50;13.90;;;;;;;11.17;77.72;93455.41;5071758;28;20240;-68
2022/10/23 03:45:25;;;;;;;16.47;13.87;;;;;;;11.21;77.88;93458.28;5073239;28;20185;-67
2022/10/23 03:47:51;;;;;;;13.90;12.50;;;;;;;11.19;77.67;93450.72;5072267;28;20193;-68
2022/10/23 03:50:18;;;;;;;16.20;13.43;;;;;;;11.18;77.74;93467.44;5071966;28;20190;-68
2022/10/23 03:52:44;;;;;;;13.27;12.17;;;;;;;11.19;77.82;93469.00;5071982;28;20193;-67
2022/10/23 03:55:10;;;;;;;13.43;11.90;;;;;;;10.92;79.23;93460.63;5072836;28;20220;-69
2022/10/23 03:57:36;;;;;;;16.07;12.30;;;;;;;10.99;78.17;93461.16;5070928;28;20795;-68
2022/10/23 04:00:03;;;;;;;14.30;12.13;;;;;;;10.80;79.38;93474.97;5072235;28;20258;-68
2022/10/23 04:02:28;;;;;;;12.33;11.30;;;;;;;10.98;76.21;93470.03;5071751;28;20185;-67
2022/10/23 04:04:54;;;;;;;13.83;11.90;;;;;;;10.96;76.82;93479.16;5072127;28;20219;-68
2022/10/23 04:07:19;;;;;;;19.07;12.40;;;;;;;10.86;76.60;93485.16;5072231;28;20197;-68
2022/10/23 04:09:45;;;;;;;12.57;11.57;;;;;;;10.84;76.45;93476.81;5079104;28;20221;-67
2022/10/23 04:12:10;;;;;;;11.97;10.77;;;;;;;11.00;76.66;93483.59;5071648;28;20206;-67
2022/10/23 04:14:35;;;;;;;12.83;11.57;;;;;;;11.05;74.55;93475.78;5072150;28;20225;-68
2022/10/23 04:17:01;;;;;;;11.43;10.53;;;;;;;11.33;71.24;93472.66;5072428;28;20216;-67
2022/10/23 04:19:26;;;;;;;12.97;11.90;;;;;;;11.48;70.85;93484.16;5070675;28;20304;-67
2022/10/23 04:21:52;;;;;;;16.27;11.57;;;;;;;11.53;70.68;93478.94;5071581;28;20200;-68
2022/10/23 04:24:17;;;;;;;12.03;10.93;;;;;;;11.68;68.41;93479.75;5070791;28;20229;-68
2022/10/23 04:26:42;;;;;;;12.83;11.80;;;;;;;11.84;68.48;93472.66;5072047;28;20251;-68
2022/10/23 04:29:08;;;;;;;12.03;11.00;;;;;;;12.07;67.07;93474.69;5071276;28;20221;-68
2022/10/23 04:31:33;;;;;;;12.10;11.17;;;;;;;11.93;68.05;93473.69;5072446;28;20173;-67
2022/10/23 04:33:58;;;;;;;12.87;11.87;;;;;;;12.02;66.35;93477.31;5071648;28;20644;-68
2022/10/23 04:36:24;;;;;;;12.27;11.27;;;;;;;12.01;67.47;93470.53;5071792;28;20214;-69
2022/10/23 04:38:49;;;;;;;11.00;10.13;;;;;;;11.96;66.74;93471.31;5071514;28;20229;-68
2022/10/23 04:41:15;;;;;;;11.70;10.60;;;;;;;11.85;68.55;93468.97;5071611;28;20175;-68
2022/10/23 04:43:40;;;;;;;11.63;10.40;;;;;;;12.52;62.81;93471.91;5071432;28;20244;-68
2022/10/23 04:46:06;;;;;;;12.53;11.10;;;;;;;12.88;62.35;93473.31;5071919;28;20196;-68
2022/10/23 04:48:32;;;;;;;11.97;10.80;;;;;;;12.89;62.69;93459.94;5070769;28;20224;-67
2022/10/23 04:50:59;;;;;;;13.90;11.67;;;;;;;12.94;63.45;93474.84;5071720;28;20182;-71
2022/10/23 04:53:25;;;;;;;13.20;11.90;;;;;;;13.20;63.51;93462.41;5070002;28;20248;-70
2022/10/23 04:55:52;;;;;;;13.63;12.10;;;;;;;13.43;62.38;93478.19;5071643;28;20222;-70
2022/10/23 04:58:18;;;;;;;12.23;11.23;;;;;;;13.41;62.64;93472.47;5071099;28;20251;-70
2022/10/23 05:00:45;;;;;;;12.77;11.47;;;;;;;13.71;60.88;93490.56;5072024;28;20186;-69
2022/10/23 05:03:10;;;;;;;13.77;11.30;;;;;;;13.73;61.20;93498.94;5071416;28;20229;-71
2022/10/23 05:05:36;;;;;;;18.23;12.13;;;;;;;13.75;61.36;93496.84;5071498;28;20205;-70
2022/10/23 05:08:01;;;;;;;13.07;11.73;;;;;;;13.56;62.28;93495.94;5070906;28;20245;-70
2022/10/23 05:10:27;;;;;;;12.30;11.20;;;;;;;13.79;61.18;93497.84;5070926;28;20225;-71
2022/10/23 05:12:52;;;;;;;12.77;11.50;;;;;;;13.89;61.67;93503.03;5070891;28;20174;-71
2022/10/23 05:15:17;;;;;;;12.63;11.43;;;;;;;13.76;62.85;93500.25;5071105;28;20202;-71
2022/10/23 05:17:45;;;;;;;12.57;11.27;;;;;;;13.95;62.25;93501.91;5069667;28;20289;-71
2022/10/23 05:20:17;;;;;;;13.63;11.73;;;;;;;13.89;62.76;93502.22;5071199;28;20189;-70
2022/10/23 05:22:43;;;;;;;12.23;11.27;;;;;;;13.94;62.61;93500.34;5070915;28;20189;-70
2022/10/23 05:25:10;;;;;;;11.90;10.83;;;;;;;13.99;63.02;93492.41;5071101;28;21043;-70
2022/10/23 05:27:35;;;;;;;12.70;11.47;;;;;;;13.93;64.55;93493.53;5070591;28;20200;-70
2022/10/23 05:30:01;;;;;;;12.73;11.40;;;;;;;13.89;65.83;93497.78;5070319;28;20857;-70
2022/10/23 05:32:29;;;;;;;12.23;11.03;;;;;;;13.92;66.97;93514.81;5070399;28;20193;-71
2022/10/23 05:34:55;;;;;;;12.47;11.47;;;;;;;14.24;69.05;93513.19;5070341;28;20872;-71
2022/10/23 05:37:21;;;;;;;12.20;11.30;;;;;;;14.32;69.88;93515.22;5070797;28;20228;-70
2022/10/23 05:39:46;;;;;;;12.57;11.37;;;;;;;14.41;70.84;93516.16;5070534;28;20225;-70
2022/10/23 05:42:12;;;;;;;12.87;11.57;;;;;;;14.46;70.29;93502.19;5070457;28;20194;-70
2022/10/23 05:44:37;;;;;;;12.30;11.13;;;;;;;14.63;70.97;93528.81;5070244;28;20225;-70
2022/10/23 05:47:03;;;;;;;13.47;12.27;;;;;;;14.61;72.08;93536.22;5070441;28;20249;-70
2022/10/23 05:49:28;;;;;;;12.13;11.23;;;;;;;14.66;71.95;93532.72;5070069;28;20225;-71
2022/10/23 05:51:53;;;;;;;12.77;10.93;;;;;;;14.66;73.44;93536.16;5070904;28;20189;-70
2022/10/23 05:54:19;;;;;;;12.30;11.00;;;;;;;14.81;73.68;93538.59;5070012;28;20217;-70
2022/10/23 05:56:44;;;;;;;11.10;10.20;;;;;;;14.85;73.89;93531.69;5069902;28;20213;-69
2022/10/23 05:59:09;;;;;;;11.83;10.70;;;;;;;14.81;75.05;93532.53;5068540;28;20643;-71
2022/10/23 06:01:36;;;;;;;11.37;10.27;;;;;;;14.86;75.65;93528.03;5070264;28;20245;-71
2022/10/23 06:04:02;;;;;;;11.97;10.97;;;;;;;14.86;75.68;93537.75;5069117;28;20236;-70
2022/10/23 06:06:27;;;;;;;11.07;10.07;;;;;;;14.86;76.92;93554.31;5069625;28;20196;-68
2022/10/23 06:08:53;;;;;;;12.80;11.70;;;;;;;14.92;76.99;93555.81;5069544;28;20233;-66
2022/10/23 06:11:19;;;;;;;11.00;10.20;;;;;;;14.95;76.97;93557.09;5068189;28;20221;-67
2022/10/23 06:13:45;;;;;;;14.03;10.20;;;;;;;15.00;77.37;93564.94;5069043;28;20221;-67
2022/10/23 06:16:20;;;;;;;11.83;11.00;;;;;;;15.04;76.32;93560.66;5067495;28;21665;-70
2022/10/23 06:18:46;;;;;;;12.20;11.20;;;;;;;14.98;76.34;93573.09;5068448;28;20278;-70
2022/10/23 06:21:12;;;;;;;13.57;12.20;;;;;;;14.98;75.97;93567.84;5068749;28;20253;-68
2022/10/23 06:23:39;;;;;;;12.90;10.53;;;;;;;15.02;75.56;93579.34;5093882;28;20228;-68
2022/10/23 06:26:07;;;;;;;13.27;11.17;;;;;;;15.24;74.78;93584.06;5069749;28;20190;-66
2022/10/23 06:28:33;;;;;;;12.03;11.03;;;;;;;15.36;74.66;93566.03;5068974;28;20868;-69
2022/10/23 06:30:58;;;;;;;11.93;10.77;;;;;;;15.36;75.22;93573.94;5067658;28;20279;-70
2022/10/23 06:33:24;;;;;;;12.00;11.13;;;;;;;15.45;75.17;93574.88;5068881;28;20213;-68
2022/10/23 06:35:49;;;;;;;11.80;10.70;;;;;;;15.54;75.34;93581.88;5068644;28;20238;-67
2022/10/23 06:38:15;;;;;;;11.60;10.80;;;;;;;15.50;76.12;93574.81;5067768;28;20293;-68
2022/10/23 06:40:40;;;;;;;11.03;10.20;;;;;;;15.59;75.73;93581.00;5068459;28;20196;-68
2022/10/23 06:43:07;;;;;;;11.90;10.83;;;;;;;15.63;75.28;93582.78;5069058;28;20225;-68
2022/10/23 06:45:33;;;;;;;12.50;11.50;;;;;;;15.62;74.77;93577.81;5068121;28;20196;-70
2022/10/23 06:47:59;;;;;;;12.53;11.43;;;;;;;15.46;75.11;93592.25;5065514;28;20293;-66
2022/10/23 06:50:26;;;;;;;13.07;11.80;;;;;;;15.36;75.69;93587.09;5066197;28;20193;-72
2022/10/23 06:52:52;;;;;;;11.57;10.77;;;;;;;15.12;76.45;93595.03;5066698;28;20193;-68
2022/10/23 06:55:18;;;;;;;13.20;11.87;;;;;;;15.10;76.62;93581.34;5067953;28;20627;-67
2022/10/23 06:57:43;;;;;;;11.60;10.50;;;;;;;15.13;76.50;93590.56;5067061;28;20236;-71
2022/10/23 07:00:09;;;;;;;12.43;11.50;;;;;;;15.18;76.25;93590.47;5067577;28;20185;-70
2022/10/23 07:02:35;;;;;;;12.37;11.17;;;;;;;15.33;76.33;93587.66;5067837;28;20181;-70
2022/10/23 07:05:00;;;;;;;11.03;9.70;;;;;;;15.42;75.26;93572.81;5067124;28;20217;-71
2022/10/23 07:07:28;;;;;;;11.80;10.90;;;;;;;15.67;74.07;93585.63;5067379;28;20183;-70
2022/10/23 07:09:54;;;;;;;10.30;9.70;;;;;;;15.76;73.58;93589.19;5066799;28;20225;-70
2022/10/23 07:12:19;;;;;;;10.53;9.33;;;;;;;15.92;72.17;93598.44;5068712;28;20186;-69
2022/10/23 07:14:44;;;;;;;10.90;10.10;;;;;;;15.99;72.53;93591.72;5067971;28;20225;-68
2022/10/23 07:17:10;;;;;;;10.03;9.33;;;;;;;16.22;70.40;93581.38;5067956;28;20209;-68
2022/10/23 07:19:35;;;;;;;9.10;8.60;;;;;;;16.20;70.41;93584.28;5067342;28;20292;-67
2022/10/23 07:22:00;;;;;;;10.03;9.20;;;;;;;16.35;69.42;93580.59;5066979;28;20185;-67
2022/10/23 07:24:26;;;;;;;10.00;9.50;;;;;;;16.19;69.61;93569.53;5071991;28;20228;-72
2022/10/23 07:26:51;;;;;;;10.50;9.67;;;;;;;16.37;69.05;93602.97;5069809;28;20244;-73
2022/10/23 07:29:17;;;;;;;10.20;9.40;;;;;;;16.50;68.68;93604.13;5067471;28;20288;-71
2022/10/23 07:31:42;;;;;;;9.93;9.33;;;;;;;16.56;68.59;93593.16;5068191;28;20193;-71
2022/10/23 07:34:09;;;;;;;10.00;9.33;;;;;;;16.45;68.93;93588.38;5067520;28;20229;-72
2022/10/23 07:36:34;;;;;;;9.73;9.13;;;;;;;16.58;68.61;93585.75;5066410;28;21033;-71
2022/10/23 07:38:59;;;;;;;10.23;9.53;;;;;;;16.77;66.19;93590.94;5066776;28;20243;-70
2022/10/23 07:41:25;;;;;;;10.20;9.43;;;;;;;16.81;66.85;93590.06;5067757;28;21176;-70
2022/10/23 07:43:50;;;;;;;9.63;8.90;;;;;;;16.75;65.90;93583.31;5066669;28;20241;-69
2022/10/23 07:46:15;;;;;;;9.67;9.07;;;;;;;16.82;65.29;93588.22;5066560;28;20197;-72
2022/10/23 07:48:41;;;;;;;9.70;9.03;;;;;;;17.09;65.59;93607.47;5066891;28;20221;-74
2022/10/23 07:51:11;;;;;;;9.60;8.90;;;;;;;17.06;64.70;93612.53;5067197;28;20209;-72
2022/10/23 07:53:37;;;;;;;9.40;8.77;;;;;;;17.04;63.51;93601.53;5063999;28;20233;-72
2022/10/23 07:56:11;;;;;;;9.53;8.93;;;;;;;17.26;63.71;93610.28;5082986;28;20188;-71
2022/10/23 07:58:36;;;;;;;9.50;8.60;;;;;;;17.22;62.98;93617.25;5063584;28;20209;-69
2022/10/23 08:01:03;;;;;;;8.07;7.63;;;;;;;17.09;62.91;93604.84;5067018;28;20194;-71
2022/10/23 08:03:31;;;;;;;8.97;8.57;;;;;;;17.31;62.88;93612.84;5066206;28;20240;-71
2022/10/23 08:05:57;;;;;;;10.57;9.83;;;;;;;17.34;64.04;93612.25;5065702;28;20182;-71
2022/10/23 08:08:24;;;;;;;9.23;8.70;;;;;;;17.12;64.18;93616.69;5065840;28;21043;-70
2022/10/23 08:10:51;;;;;;;9.00;8.50;;;;;;;17.29;62.94;93609.69;5066611;28;20248;-71
2022/10/23 08:13:19;;;;;;;9.57;8.87;;;;;;;17.20;63.97;93618.59;5065339;28;20225;-71
2022/10/23 08:15:46;;;;;;;8.93;8.43;;;;;;;17.35;63.81;93611.16;5067059;28;20170;-70
2022/10/23 08:18:11;;;;;;;9.87;9.23;;;;;;;17.37;62.85;93614.28;5066501;28;20240;-70
2022/10/23 08:20:44;;;;;;;9.93;9.33;;;;;;;17.43;62.88;93613.13;5066612;28;20233;-70
2022/10/23 08:23:15;;;;;;;10.20;9.37;;;;;;;17.22;63.46;93604.06;5068165;28;20233;-70
2022/10/23 08:25:41;;;;;;;9.27;8.80;;;;;;;17.32;63.16;93606.47;5069281;28;20194;-70
2022/10/23 08:28:07;;;;;;;10.53;9.83;;;;;;;17.52;62.71;93600.81;5069919;28;20304;-71
2022/10/23 08:30:33;;;;;;;10.30;9.60;;;;;;;17.55;61.55;93600.25;5069740;28;20204;-70
2022/10/23 08:32:58;;;;;;;9.73;9.13;;;;;;;17.44;61.46;93606.00;5069054;28;20237;-71
2022/10/23 08:35:24;;;;;;;10.07;9.47;;;;;;;17.41;61.69;93625.06;5070467;28;20185;-70
2022/10/23 08:37:49;;;;;;;10.13;9.43;;;;;;;17.28;62.48;93596.81;5069735;28;20276;-70
2022/10/23 08:40:16;;;;;;;10.17;9.50;;;;;;;17.47;61.51;93615.97;5070288;28;20189;-70
2022/10/23 08:42:46;;;;;;;9.37;8.87;;;;;;;17.55;61.67;93607.38;5070214;28;20198;-70
2022/10/23 08:45:18;;;;;;;9.80;9.20;;;;;;;17.79;61.19;93610.53;5070231;28;20203;-70
2022/10/23 08:47:49;;;;;;;10.30;9.30;;;;;;;17.80;61.02;93608.66;5068876;28;20671;-71
2022/10/23 08:50:29;;;;;;;9.50;8.80;;;;;;;17.77;61.19;93617.19;5069591;28;20192;-70
2022/10/23 08:53:13;;;;;;;9.63;8.93;;;;;;;17.78;60.28;93602.91;5070463;28;20235;-70
2022/10/23 08:55:43;;;;;;;8.77;8.23;;;;;;;17.73;59.28;93609.06;5070483;28;20185;-70
2022/10/23 08:58:14;;;;;;;9.87;9.37;;;;;;;17.73;60.52;93618.88;5070714;28;20217;-70
2022/10/23 09:00:41;;;;;;;10.03;9.23;;;;;;;17.83;60.38;93606.22;5070653;28;20224;-71
2022/10/23 09:03:10;;;;;;;8.67;7.83;;;;;;;17.87;58.18;93599.25;5070620;28;20229;-71
2022/10/23 09:05:50;;;;;;;9.27;8.67;;;;;;;17.85;57.45;93603.28;5070083;28;20202;-70
2022/10/23 09:08:37;;;;;;;10.20;9.37;;;;;;;17.99;57.67;93609.31;5070139;28;20321;-71
2022/10/23 09:11:20;;;;;;;9.30;8.47;;;;;;;18.02;56.33;93609.50;5069881;28;20236;-71
2022/10/23 09:14:02;;;;;;;8.57;8.07;;;;;;;18.29;55.85;93600.66;5070206;28;20229;-71
2022/10/23 09:16:30;;;;;;;8.50;8.00;;;;;;;18.29;56.33;93598.03;5070348;28;20209;-70
2022/10/23 09:18:57;;;;;;;8.60;8.10;;;;;;;18.38;53.53;93590.97;5069796;28;20288;-71
2022/10/23 09:21:31;;;;;;;10.13;9.13;;;;;;;18.41;55.12;93600.94;5070419;28;20194;-70
2022/10/23 09:23:56;;;;;;;9.80;8.93;;;;;;;18.39;56.48;93603.88;5068657;28;20229;-71
2022/10/23 09:26:22;;;;;;;9.43;8.83;;;;;;;18.35;57.24;93602.09;5070115;28;20195;-70
2022/10/23 09:28:55;;;;;;;9.70;9.10;;;;;;;18.42;57.59;93613.84;5069361;28;20221;-70
2022/10/23 09:31:21;;;;;;;9.27;8.77;;;;;;;18.45;55.90;93604.53;5070049;28;20183;-71
2022/10/23 09:33:57;;;;;;;8.33;7.93;;;;;;;18.57;55.19;93604.72;5070093;28;20225;-71
2022/10/23 09:36:24;;;;;;;10.30;9.37;;;;;;;18.47;55.94;93605.78;5069586;28;20220;-70
2022/10/23 09:38:52;;;;;;;8.80;8.20;;;;;;;18.46;55.43;93592.88;5070363;28;20223;-70
2022/10/23 09:41:21;;;;;;;9.73;8.87;;;;;;;18.33;55.98;93604.25;5068869;28;20201;-70
2022/10/23 09:44:07;;;;;;;9.43;8.17;;;;;;;18.51;55.55;93595.38;5069417;28;20224;-71
2022/10/23 09:46:40;;;;;;;9.07;8.47;;;;;;;18.66;55.93;93602.94;5069891;28;20198;-70
2022/10/23 09:49:15;;;;;;;9.20;8.60;;;;;;;18.72;54.63;93609.66;5068953;28;20278;-70
2022/10/23 09:51:51;;;;;;;8.67;8.07;;;;;;;18.80;54.65;93606.28;5068863;28;20193;-70
2022/10/23 09:54:18;;;;;;;9.53;8.97;;;;;;;18.72;55.03;93601.72;5068715;28;20222;-70
2022/10/23 09:56:47;;;;;;;10.00;9.30;;;;;;;18.82;55.55;93599.59;5069963;28;20578;-70
2022/10/23 09:59:12;;;;;;;10.33;9.53;;;;;;;18.81;56.61;93605.19;5066740;28;20232;-70
2022/10/23 10:01:46;;;;;;;9.43;8.83;;;;;;;18.73;55.15;93590.84;5069945;28;20276;-71
2022/10/23 10:04:12;;;;;;;9.23;8.53;;;;;;;18.83;57.08;93600.38;5070024;28;20247;-70
2022/10/23 10:06:38;;;;;;;9.10;8.33;;;;;;;18.76;55.81;93582.28;5069056;28;20201;-72
2022/10/23 10:09:13;;;;;;;9.57;8.97;;;;;;;18.89;55.45;93591.22;5069040;28;20222;-71
2022/10/23 10:11:54;;;;;;;9.60;8.93;;;;;;;19.02;55.48;93579.72;5068754;28;20218;-71
2022/10/23 10:14:28;;;;;;;9.17;8.67;;;;;;;19.01;55.45;93581.63;5068283;28;20221;-70
2022/10/23 10:17:16;;;;;;;9.27;8.67;;;;;;;19.14;54.76;93582.59;5069192;28;20205;-71
2022/10/23 10:19:57;;;;;;;9.33;8.63;;;;;;;19.19;54.56;93587.75;5028142;28;20233;-71
2022/10/23 10:22:31;;;;;;;9.33;8.83;;;;;;;19.11;54.60;93583.22;5068295;28;20199;-70
2022/10/23 10:25:03;;;;;;;9.03;8.43;;;;;;;19.19;52.88;93585.09;5067429;28;20906;-71
2022/10/23 10:27:51;;;;;;;8.63;8.23;;;;;;;19.14;51.45;93586.00;5067851;28;20197;-71
2022/10/23 10:30:21;;;;;;;8.87;8.37;;;;;;;19.17;51.14;93577.44;5068779;28;20213;-70
2022/10/23 10:32:58;;;;;;;9.57;8.80;;;;;;;19.22;52.16;93565.97;5067882;28;20208;-70
2022/10/23 10:35:36;;;;;;;8.87;8.37;;;;;;;19.25;51.48;93569.84;5049069;28;20183;-70
2022/10/23 10:38:30;;;;;;;8.63;8.17;;;;;;;19.37;51.97;93576.13;5048651;28;20223;-71
2022/10/23 10:41:10;;;;;;;7.97;7.57;;;;;;;19.46;49.91;93553.09;5047240;28;20275;-70
2022/10/23 10:44:00;;;;;;;8.30;7.90;;;;;;;19.47;48.03;93569.78;5042769;28;20232;-70
2022/10/23 10:46:44;;;;;;;8.60;8.20;;;;;;;19.32;49.20;93563.03;5040531;28;20206;-71
2022/10/23 10:49:16;;;;;;;7.80;7.50;;;;;;;19.35;49.63;93573.00;5056158;28;20234;-70
2022/10/23 10:51:56;;;;;;;7.80;7.40;;;;;;;19.45;48.49;93559.50;5066661;28;20182;-70
2022/10/23 10:54:40;;;;;;;9.10;8.50;;;;;;;19.44;49.54;93559.78;5067726;28;20230;-71
2022/10/23 10:57:26;;;;;;;8.67;8.10;;;;;;;19.47;50.46;93561.81;5068021;28;20274;-71
2022/10/23 10:59:54;;;;;;;8.60;8.20;;;;;;;19.49;49.90;93552.47;5067722;28;20237;-70
2022/10/23 11:02:29;;;;;;;8.30;7.90;;;;;;;19.60;47.30;93559.03;5068670;28;20196;-70
2022/10/23 11:05:14;;;;;;;8.07;7.53;;;;;;;19.51;48.25;93560.91;5068244;28;20237;-71
2022/10/23 11:07:53;;;;;;;8.60;8.10;;;;;;;19.51;47.86;93555.59;5067905;28;20201;-71
2022/10/23 11:10:19;;;;;;;8.37;7.97;;;;;;;19.29;48.96;93542.47;5067436;28;20277;-70
2022/10/23 11:12:46;;;;;;;7.83;7.37;;;;;;;19.52;49.58;93549.19;5068173;28;20196;-70
2022/10/23 11:15:19;;;;;;;8.47;7.97;;;;;;;19.49;48.18;93541.88;5068217;28;20192;-71
2022/10/23 11:17:53;;;;;;;8.33;7.93;;;;;;;19.61;48.12;93542.03;5067730;28;20220;-70
2022/10/23 11:20:32;;;;;;;8.00;7.60;;;;;;;19.67;47.63;93547.97;5068046;28;20195;-70
2022/10/23 11:23:17;;;;;;;8.80;8.13;;;;;;;19.70;47.06;93547.34;5067541;28;20178;-71
2022/10/23 11:25:52;;;;;;;8.37;7.87;;;;;;;19.69;47.92;93535.97;5068380;28;20198;-71
2022/10/23 11:28:36;;;;;;;8.80;8.30;;;;;;;19.66;48.03;93530.53;5066493;28;20234;-71
2022/10/23 11:31:19;;;;;;;9.47;8.80;;;;;;;19.65;48.66;93531.59;5067701;28;20175;-71
2022/10/23 11:34:26;;;;;;;8.80;8.30;;;;;;;19.58;48.68;93537.34;5067892;28;20231;-72
2022/10/23 11:36:57;;;;;;;8.70;8.20;;;;;;;19.67;48.36;93527.56;5065369;28;20226;-70